sensor_id;sensor_type;location;lat;lon;timestamp;temperature;humidity
40960;DHT22;27842;52.272;8.052;2024-02-26T00:00:13;6.20;99.90
40960;DHT22;27842;52.272;8.052;2024-02-26T00:02:39;6.20;99.90
40960;DHT22;27842;52.272;8.052;2024-02-26T00:05:06;6.20;99.90
40960;DHT22;27842;52.272;8.052;2024-02-26T00:07:32;6.20;99.90
40960;DHT22;27842;52.272;8.052;2024-02-26T00:09:57;6.20;99.90
40960;DHT22;27842;52.272;8.052;2024-02-26T00:12:23;6.20;99.90
40960;DHT22;27842;52.272;8.052;2024-02-26T00:14:48;6.20;99.90
40960;DHT22;27842;52.272;8.052;2024-02-26T00:17:15;6.20;99.90
40960;DHT22;27842;52.272;8.052;2024-02-26T00:19:41;6.20;99.90
40960;DHT22;27842;52.272;8.052;2024-02-26T00:22:06;6.20;99.90
40960;DHT22;27842;52.272;8.052;2024-02-26T00:24:32;6.10;99.90
40960;DHT22;27842;52.272;8.052;2024-02-26T00:26:58;6.10;99.90
40960;DHT22;27842;52.272;8.052;2024-02-26T00:29:24;6.10;99.90
40960;DHT22;27842;52.272;8.052;2024-02-26T00:31:51;6.10;99.90
40960;DHT22;27842;52.272;8.052;2024-02-26T00:34:16;6.10;99.90
40960;DHT22;27842;52.272;8.052;2024-02-26T00:36:42;6.00;99.90
40960;DHT22;27842;52.272;8.052;2024-02-26T00:39:07;6.00;99.90
40960;DHT22;27842;52.272;8.052;2024-02-26T00:41:33;6.00;99.90
40960;DHT22;27842;52.272;8.052;2024-02-26T00:44:03;6.00;99.90
40960;DHT22;27842;52.272;8.052;2024-02-26T00:46:28;6.10;99.90
40960;DHT22;27842;52.272;8.052;2024-02-26T00:48:54;6.00;99.90
40960;DHT22;27842;52.272;8.052;2024-02-26T00:51:19;6.00;99.90
40960;DHT22;27842;52.272;8.052;2024-02-26T00:53:45;6.00;99.90
40960;DHT22;27842;52.272;8.052;2024-02-26T00:56:10;6.00;99.90
40960;DHT22;27842;52.272;8.052;2024-02-26T00:58:36;6.00;99.90
40960;DHT22;27842;52.272;8.052;2024-02-26T01:01:02;5.90;99.90
40960;DHT22;27842;52.272;8.052;2024-02-26T01:03:28;5.90;99.90
40960;DHT22;27842;52.272;8.052;2024-02-26T01:05:54;5.90;99.90
40960;DHT22;27842;52.272;8.052;2024-02-26T01:08:19;5.90;99.90
40960;DHT22;27842;52.272;8.052;2024-02-26T01:10:45;5.90;99.90
40960;DHT22;27842;52.272;8.052;2024-02-26T01:13:11;5.90;99.90
40960;DHT22;27842;52.272;8.052;2024-02-26T01:15:37;5.90;99.90
40960;DHT22;27842;52.272;8.052;2024-02-26T01:18:02;5.90;99.90
40960;DHT22;27842;52.272;8.052;2024-02-26T01:20:28;5.90;99.90
40960;DHT22;27842;52.272;8.052;2024-02-26T01:22:53;5.80;99.90
40960;DHT22;27842;52.272;8.052;2024-02-26T01:25:19;5.80;99.90
40960;DHT22;27842;52.272;8.052;2024-02-26T01:27:44;5.80;99.90
40960;DHT22;27842;52.272;8.052;2024-02-26T01:30:11;5.70;99.90
40960;DHT22;27842;52.272;8.052;2024-02-26T01:32:36;5.70;99.90
40960;DHT22;27842;52.272;8.052;2024-02-26T01:35:03;5.70;99.90
40960;DHT22;27842;52.272;8.052;2024-02-26T01:37:35;5.70;99.90
40960;DHT22;27842;52.272;8.052;2024-02-26T01:40:01;5.70;99.90
40960;DHT22;27842;52.272;8.052;2024-02-26T01:42:29;5.70;99.90
40960;DHT22;27842;52.272;8.052;2024-02-26T01:44:56;5.70;99.90
40960;DHT22;27842;52.272;8.052;2024-02-26T01:47:22;5.70;99.90
40960;DHT22;27842;52.272;8.052;2024-02-26T01:49:48;5.70;99.90
40960;DHT22;27842;52.272;8.052;2024-02-26T01:52:14;5.70;99.90
40960;DHT22;27842;52.272;8.052;2024-02-26T01:54:40;5.70;99.90
40960;DHT22;27842;52.272;8.052;2024-02-26T01:57:08;5.70;99.90
40960;DHT22;27842;52.272;8.052;2024-02-26T01:59:34;5.60;99.90
40960;DHT22;27842;52.272;8.052;2024-02-26T02:02:01;5.60;99.90
40960;DHT22;27842;52.272;8.052;2024-02-26T02:04:28;5.60;99.90
40960;DHT22;27842;52.272;8.052;2024-02-26T02:06:54;5.60;99.90
40960;DHT22;27842;52.272;8.052;2024-02-26T02:09:20;5.60;99.90
40960;DHT22;27842;52.272;8.052;2024-02-26T02:11:48;5.60;99.90
40960;DHT22;27842;52.272;8.052;2024-02-26T02:14:14;5.60;99.90
40960;DHT22;27842;52.272;8.052;2024-02-26T02:16:40;5.50;99.90
40960;DHT22;27842;52.272;8.052;2024-02-26T02:19:05;5.60;99.90
40960;DHT22;27842;52.272;8.052;2024-02-26T02:21:31;5.60;99.90
40960;DHT22;27842;52.272;8.052;2024-02-26T02:23:56;5.50;99.90
40960;DHT22;27842;52.272;8.052;2024-02-26T02:26:22;5.60;99.90
40960;DHT22;27842;52.272;8.052;2024-02-26T02:28:48;5.50;99.90
40960;DHT22;27842;52.272;8.052;2024-02-26T02:31:15;5.50;99.90
40960;DHT22;27842;52.272;8.052;2024-02-26T02:33:41;5.50;99.90
40960;DHT22;27842;52.272;8.052;2024-02-26T02:36:07;5.50;99.90
40960;DHT22;27842;52.272;8.052;2024-02-26T02:38:36;5.60;99.90
40960;DHT22;27842;52.272;8.052;2024-02-26T02:41:02;5.60;99.90
40960;DHT22;27842;52.272;8.052;2024-02-26T02:43:27;5.60;99.90
40960;DHT22;27842;52.272;8.052;2024-02-26T02:45:53;5.60;99.90
40960;DHT22;27842;52.272;8.052;2024-02-26T02:48:18;5.60;99.90
40960;DHT22;27842;52.272;8.052;2024-02-26T02:50:44;5.60;99.90
40960;DHT22;27842;52.272;8.052;2024-02-26T02:53:10;5.60;99.90
40960;DHT22;27842;52.272;8.052;2024-02-26T02:55:36;5.60;99.90
40960;DHT22;27842;52.272;8.052;2024-02-26T02:58:01;5.60;99.90
40960;DHT22;27842;52.272;8.052;2024-02-26T03:00:27;5.60;99.90
40960;DHT22;27842;52.272;8.052;2024-02-26T03:02:52;5.60;99.90
40960;DHT22;27842;52.272;8.052;2024-02-26T03:05:20;5.60;99.90
40960;DHT22;27842;52.272;8.052;2024-02-26T03:07:46;5.60;99.90
40960;DHT22;27842;52.272;8.052;2024-02-26T03:10:12;5.70;99.90
40960;DHT22;27842;52.272;8.052;2024-02-26T03:12:37;5.60;99.90
40960;DHT22;27842;52.272;8.052;2024-02-26T03:15:03;5.70;99.90
40960;DHT22;27842;52.272;8.052;2024-02-26T03:17:29;5.70;99.90
40960;DHT22;27842;52.272;8.052;2024-02-26T03:19:55;5.70;99.90
40960;DHT22;27842;52.272;8.052;2024-02-26T03:22:20;5.60;99.90
40960;DHT22;27842;52.272;8.052;2024-02-26T03:24:46;5.70;99.90
40960;DHT22;27842;52.272;8.052;2024-02-26T03:27:12;5.60;99.90
40960;DHT22;27842;52.272;8.052;2024-02-26T03:29:38;5.60;99.90
40960;DHT22;27842;52.272;8.052;2024-02-26T03:32:04;5.60;99.90
40960;DHT22;27842;52.272;8.052;2024-02-26T03:34:30;5.60;99.90
40960;DHT22;27842;52.272;8.052;2024-02-26T03:36:56;5.60;99.90
40960;DHT22;27842;52.272;8.052;2024-02-26T03:39:22;5.60;99.90
40960;DHT22;27842;52.272;8.052;2024-02-26T03:41:48;5.70;99.90
40960;DHT22;27842;52.272;8.052;2024-02-26T03:44:14;5.70;99.90
40960;DHT22;27842;52.272;8.052;2024-02-26T03:46:40;5.60;99.90
40960;DHT22;27842;52.272;8.052;2024-02-26T03:49:08;5.70;99.90
40960;DHT22;27842;52.272;8.052;2024-02-26T03:51:33;5.70;99.90
40960;DHT22;27842;52.272;8.052;2024-02-26T03:53:59;5.70;99.90
40960;DHT22;27842;52.272;8.052;2024-02-26T03:56:25;5.70;99.90
40960;DHT22;27842;52.272;8.052;2024-02-26T03:58:51;5.70;99.90
40960;DHT22;27842;52.272;8.052;2024-02-26T04:01:17;5.70;99.90
40960;DHT22;27842;52.272;8.052;2024-02-26T04:03:42;5.70;99.90
40960;DHT22;27842;52.272;8.052;2024-02-26T04:06:09;5.70;99.90
40960;DHT22;27842;52.272;8.052;2024-02-26T04:08:46;5.70;99.90
40960;DHT22;27842;52.272;8.052;2024-02-26T04:11:12;5.70;99.90
40960;DHT22;27842;52.272;8.052;2024-02-26T04:13:37;5.70;99.90
40960;DHT22;27842;52.272;8.052;2024-02-26T04:16:04;5.70;99.90
40960;DHT22;27842;52.272;8.052;2024-02-26T04:18:31;5.80;99.90
40960;DHT22;27842;52.272;8.052;2024-02-26T04:20:57;5.80;99.90
40960;DHT22;27842;52.272;8.052;2024-02-26T04:23:22;5.90;99.90
40960;DHT22;27842;52.272;8.052;2024-02-26T04:25:48;5.80;99.90
40960;DHT22;27842;52.272;8.052;2024-02-26T04:28:13;5.80;99.90
40960;DHT22;27842;52.272;8.052;2024-02-26T04:30:40;5.80;99.90
40960;DHT22;27842;52.272;8.052;2024-02-26T04:33:05;5.70;99.90
40960;DHT22;27842;52.272;8.052;2024-02-26T04:35:31;5.70;99.90
40960;DHT22;27842;52.272;8.052;2024-02-26T04:37:57;5.80;99.90
40960;DHT22;27842;52.272;8.052;2024-02-26T04:40:23;5.80;99.90
40960;DHT22;27842;52.272;8.052;2024-02-26T04:42:49;5.80;99.90
40960;DHT22;27842;52.272;8.052;2024-02-26T04:45:15;5.80;99.90
40960;DHT22;27842;52.272;8.052;2024-02-26T04:47:40;5.70;99.90
40960;DHT22;27842;52.272;8.052;2024-02-26T04:50:06;5.70;99.90
40960;DHT22;27842;52.272;8.052;2024-02-26T04:52:32;5.70;99.90
40960;DHT22;27842;52.272;8.052;2024-02-26T04:54:57;5.70;99.90
40960;DHT22;27842;52.272;8.052;2024-02-26T04:57:25;5.70;99.90
40960;DHT22;27842;52.272;8.052;2024-02-26T04:59:51;5.70;99.90
40960;DHT22;27842;52.272;8.052;2024-02-26T05:02:17;5.70;99.90
40960;DHT22;27842;52.272;8.052;2024-02-26T05:04:43;5.70;99.90
40960;DHT22;27842;52.272;8.052;2024-02-26T05:07:08;5.70;99.90
40960;DHT22;27842;52.272;8.052;2024-02-26T05:09:34;5.70;99.90
40960;DHT22;27842;52.272;8.052;2024-02-26T05:12:00;5.70;99.90
40960;DHT22;27842;52.272;8.052;2024-02-26T05:14:26;5.70;99.90
40960;DHT22;27842;52.272;8.052;2024-02-26T05:16:51;5.70;99.90
40960;DHT22;27842;52.272;8.052;2024-02-26T05:19:17;5.70;99.90
40960;DHT22;27842;52.272;8.052;2024-02-26T05:21:42;5.80;99.90
40960;DHT22;27842;52.272;8.052;2024-02-26T05:24:09;5.80;99.90
40960;DHT22;27842;52.272;8.052;2024-02-26T05:26:35;5.80;99.90
40960;DHT22;27842;52.272;8.052;2024-02-26T05:29:01;5.80;99.90
40960;DHT22;27842;52.272;8.052;2024-02-26T05:31:27;5.70;99.90
40960;DHT22;27842;52.272;8.052;2024-02-26T05:33:54;5.70;99.90
40960;DHT22;27842;52.272;8.052;2024-02-26T05:36:20;5.70;99.90
40960;DHT22;27842;52.272;8.052;2024-02-26T05:38:47;5.60;99.90
40960;DHT22;27842;52.272;8.052;2024-02-26T05:41:15;5.60;99.90
40960;DHT22;27842;52.272;8.052;2024-02-26T05:43:41;5.60;99.90
40960;DHT22;27842;52.272;8.052;2024-02-26T05:46:06;5.60;99.90
40960;DHT22;27842;52.272;8.052;2024-02-26T05:48:32;5.60;99.90
40960;DHT22;27842;52.272;8.052;2024-02-26T05:50:57;5.60;99.90
40960;DHT22;27842;52.272;8.052;2024-02-26T05:53:23;5.60;99.90
40960;DHT22;27842;52.272;8.052;2024-02-26T05:55:49;5.60;99.90
40960;DHT22;27842;52.272;8.052;2024-02-26T05:58:14;5.60;99.90
40960;DHT22;27842;52.272;8.052;2024-02-26T06:00:40;5.70;99.90
40960;DHT22;27842;52.272;8.052;2024-02-26T06:03:05;5.70;99.90
40960;DHT22;27842;52.272;8.052;2024-02-26T06:05:31;5.60;99.90
40960;DHT22;27842;52.272;8.052;2024-02-26T06:07:57;5.60;99.90
40960;DHT22;27842;52.272;8.052;2024-02-26T06:10:22;5.70;99.90
40960;DHT22;27842;52.272;8.052;2024-02-26T06:12:48;5.70;99.90
40960;DHT22;27842;52.272;8.052;2024-02-26T06:15:14;5.70;99.90
40960;DHT22;27842;52.272;8.052;2024-02-26T06:17:39;5.70;99.90
40960;DHT22;27842;52.272;8.052;2024-02-26T06:20:06;5.70;99.90
40960;DHT22;27842;52.272;8.052;2024-02-26T06:22:37;5.70;99.90
40960;DHT22;27842;52.272;8.052;2024-02-26T06:25:02;5.70;99.90
40960;DHT22;27842;52.272;8.052;2024-02-26T06:27:28;5.70;99.90
40960;DHT22;27842;52.272;8.052;2024-02-26T06:29:54;5.70;99.90
40960;DHT22;27842;52.272;8.052;2024-02-26T06:32:19;5.80;99.90
40960;DHT22;27842;52.272;8.052;2024-02-26T06:34:45;5.80;99.90
40960;DHT22;27842;52.272;8.052;2024-02-26T06:37:10;5.70;99.90
40960;DHT22;27842;52.272;8.052;2024-02-26T06:39:36;5.60;99.90
40960;DHT22;27842;52.272;8.052;2024-02-26T06:42:01;5.60;99.90
40960;DHT22;27842;52.272;8.052;2024-02-26T06:44:28;5.70;99.90
40960;DHT22;27842;52.272;8.052;2024-02-26T06:47:00;5.70;99.90
40960;DHT22;27842;52.272;8.052;2024-02-26T06:49:26;5.60;99.90
40960;DHT22;27842;52.272;8.052;2024-02-26T06:51:52;5.70;99.90
40960;DHT22;27842;52.272;8.052;2024-02-26T06:54:17;5.70;99.90
40960;DHT22;27842;52.272;8.052;2024-02-26T06:56:43;5.70;99.90
40960;DHT22;27842;52.272;8.052;2024-02-26T06:59:09;5.80;99.90
40960;DHT22;27842;52.272;8.052;2024-02-26T07:01:34;5.80;99.90
40960;DHT22;27842;52.272;8.052;2024-02-26T07:04:00;5.70;99.90
40960;DHT22;27842;52.272;8.052;2024-02-26T07:06:29;5.80;99.90
40960;DHT22;27842;52.272;8.052;2024-02-26T07:08:55;5.70;99.90
40960;DHT22;27842;52.272;8.052;2024-02-26T07:11:20;5.80;99.90
40960;DHT22;27842;52.272;8.052;2024-02-26T07:13:46;5.70;99.90
40960;DHT22;27842;52.272;8.052;2024-02-26T07:16:12;5.80;99.90
40960;DHT22;27842;52.272;8.052;2024-02-26T07:18:39;5.70;99.90
40960;DHT22;27842;52.272;8.052;2024-02-26T07:21:05;5.80;99.90
40960;DHT22;27842;52.272;8.052;2024-02-26T07:23:31;5.80;99.90
40960;DHT22;27842;52.272;8.052;2024-02-26T07:25:57;5.80;99.90
40960;DHT22;27842;52.272;8.052;2024-02-26T07:28:24;5.80;99.90
40960;DHT22;27842;52.272;8.052;2024-02-26T07:30:49;5.70;99.90
40960;DHT22;27842;52.272;8.052;2024-02-26T07:33:15;5.80;99.90
40960;DHT22;27842;52.272;8.052;2024-02-26T07:35:41;5.80;99.90
40960;DHT22;27842;52.272;8.052;2024-02-26T07:38:06;5.80;99.90
40960;DHT22;27842;52.272;8.052;2024-02-26T07:40:32;5.80;99.90
40960;DHT22;27842;52.272;8.052;2024-02-26T07:42:58;5.70;99.90
40960;DHT22;27842;52.272;8.052;2024-02-26T07:45:23;5.70;99.90
40960;DHT22;27842;52.272;8.052;2024-02-26T07:47:49;5.70;99.90
40960;DHT22;27842;52.272;8.052;2024-02-26T07:50:17;5.80;99.90
40960;DHT22;27842;52.272;8.052;2024-02-26T07:52:42;5.80;99.90
40960;DHT22;27842;52.272;8.052;2024-02-26T07:55:08;5.80;99.90
40960;DHT22;27842;52.272;8.052;2024-02-26T07:57:34;5.80;99.90
40960;DHT22;27842;52.272;8.052;2024-02-26T08:00:00;5.80;99.90
40960;DHT22;27842;52.272;8.052;2024-02-26T08:02:25;5.80;99.90
40960;DHT22;27842;52.272;8.052;2024-02-26T08:04:51;5.80;99.90
40960;DHT22;27842;52.272;8.052;2024-02-26T08:07:16;5.80;99.90
40960;DHT22;27842;52.272;8.052;2024-02-26T08:09:42;5.90;99.90
40960;DHT22;27842;52.272;8.052;2024-02-26T08:12:08;5.90;99.90
40960;DHT22;27842;52.272;8.052;2024-02-26T08:14:33;5.80;99.90
40960;DHT22;27842;52.272;8.052;2024-02-26T08:16:59;5.80;99.90
40960;DHT22;27842;52.272;8.052;2024-02-26T08:19:26;5.80;99.90
40960;DHT22;27842;52.272;8.052;2024-02-26T08:21:52;5.80;99.90
40960;DHT22;27842;52.272;8.052;2024-02-26T08:24:18;5.90;99.90
40960;DHT22;27842;52.272;8.052;2024-02-26T08:26:43;5.90;99.90
40960;DHT22;27842;52.272;8.052;2024-02-26T08:29:09;5.90;99.90
40960;DHT22;27842;52.272;8.052;2024-02-26T08:31:35;5.80;99.90
40960;DHT22;27842;52.272;8.052;2024-02-26T08:34:03;5.80;99.90
40960;DHT22;27842;52.272;8.052;2024-02-26T08:36:29;5.90;99.90
40960;DHT22;27842;52.272;8.052;2024-02-26T08:38:55;5.80;99.90
40960;DHT22;27842;52.272;8.052;2024-02-26T08:41:21;5.90;99.90
40960;DHT22;27842;52.272;8.052;2024-02-26T08:43:46;5.80;99.90
40960;DHT22;27842;52.272;8.052;2024-02-26T08:46:15;5.90;99.90
40960;DHT22;27842;52.272;8.052;2024-02-26T08:48:41;5.90;99.90
40960;DHT22;27842;52.272;8.052;2024-02-26T08:51:10;5.80;99.90
40960;DHT22;27842;52.272;8.052;2024-02-26T08:53:36;5.80;99.90
40960;DHT22;27842;52.272;8.052;2024-02-26T08:56:01;5.90;99.90
40960;DHT22;27842;52.272;8.052;2024-02-26T08:58:28;5.90;99.90
40960;DHT22;27842;52.272;8.052;2024-02-26T09:00:54;5.90;99.90
40960;DHT22;27842;52.272;8.052;2024-02-26T09:03:20;5.90;99.90
40960;DHT22;27842;52.272;8.052;2024-02-26T09:05:46;5.80;99.90
40960;DHT22;27842;52.272;8.052;2024-02-26T09:08:11;5.80;99.90
40960;DHT22;27842;52.272;8.052;2024-02-26T09:10:38;5.90;99.90
40960;DHT22;27842;52.272;8.052;2024-02-26T09:13:04;5.90;99.90
40960;DHT22;27842;52.272;8.052;2024-02-26T09:15:30;5.90;99.90
40960;DHT22;27842;52.272;8.052;2024-02-26T09:17:55;5.90;99.90
40960;DHT22;27842;52.272;8.052;2024-02-26T09:20:21;6.00;99.90
40960;DHT22;27842;52.272;8.052;2024-02-26T09:22:49;6.00;99.90
40960;DHT22;27842;52.272;8.052;2024-02-26T09:25:14;6.00;99.90
40960;DHT22;27842;52.272;8.052;2024-02-26T09:27:43;6.00;99.90
40960;DHT22;27842;52.272;8.052;2024-02-26T09:30:10;5.90;99.90
40960;DHT22;27842;52.272;8.052;2024-02-26T09:32:37;6.00;99.90
40960;DHT22;27842;52.272;8.052;2024-02-26T09:35:10;6.00;99.90
40960;DHT22;27842;52.272;8.052;2024-02-26T09:37:35;6.10;99.90
40960;DHT22;27842;52.272;8.052;2024-02-26T09:40:03;6.10;99.90
40960;DHT22;27842;52.272;8.052;2024-02-26T09:42:40;6.10;99.90
40960;DHT22;27842;52.272;8.052;2024-02-26T09:45:11;6.20;99.90
40960;DHT22;27842;52.272;8.052;2024-02-26T09:47:38;6.10;99.90
40960;DHT22;27842;52.272;8.052;2024-02-26T09:50:06;6.10;99.90
40960;DHT22;27842;52.272;8.052;2024-02-26T09:52:35;6.10;99.90
40960;DHT22;27842;52.272;8.052;2024-02-26T09:55:04;6.10;99.90
40960;DHT22;27842;52.272;8.052;2024-02-26T09:57:30;6.10;99.90
40960;DHT22;27842;52.272;8.052;2024-02-26T09:59:59;6.20;99.90
40960;DHT22;27842;52.272;8.052;2024-02-26T10:02:31;6.20;99.90
40960;DHT22;27842;52.272;8.052;2024-02-26T10:04:59;6.20;99.90
40960;DHT22;27842;52.272;8.052;2024-02-26T10:07:27;6.20;99.90
40960;DHT22;27842;52.272;8.052;2024-02-26T10:09:55;6.20;99.90
40960;DHT22;27842;52.272;8.052;2024-02-26T10:12:21;6.30;99.90
40960;DHT22;27842;52.272;8.052;2024-02-26T10:14:47;6.20;99.90
40960;DHT22;27842;52.272;8.052;2024-02-26T10:17:13;6.30;99.90
40960;DHT22;27842;52.272;8.052;2024-02-26T10:19:39;6.30;99.90
40960;DHT22;27842;52.272;8.052;2024-02-26T10:22:05;6.30;99.90
40960;DHT22;27842;52.272;8.052;2024-02-26T10:24:31;6.30;99.90
40960;DHT22;27842;52.272;8.052;2024-02-26T10:26:57;6.30;99.90
40960;DHT22;27842;52.272;8.052;2024-02-26T10:29:26;6.40;99.90
40960;DHT22;27842;52.272;8.052;2024-02-26T10:31:52;6.40;99.90
40960;DHT22;27842;52.272;8.052;2024-02-26T10:34:19;6.40;99.90
40960;DHT22;27842;52.272;8.052;2024-02-26T10:36:45;6.40;99.90
40960;DHT22;27842;52.272;8.052;2024-02-26T10:39:14;6.40;99.90
40960;DHT22;27842;52.272;8.052;2024-02-26T10:41:49;6.40;99.90
40960;DHT22;27842;52.272;8.052;2024-02-26T10:44:15;6.40;99.90
40960;DHT22;27842;52.272;8.052;2024-02-26T10:46:40;6.50;99.90
40960;DHT22;27842;52.272;8.052;2024-02-26T10:49:13;6.50;99.90
40960;DHT22;27842;52.272;8.052;2024-02-26T10:51:42;6.50;99.90
40960;DHT22;27842;52.272;8.052;2024-02-26T10:54:10;6.50;99.90
40960;DHT22;27842;52.272;8.052;2024-02-26T10:56:41;6.60;99.90
40960;DHT22;27842;52.272;8.052;2024-02-26T10:59:09;6.60;99.90
40960;DHT22;27842;52.272;8.052;2024-02-26T11:01:36;6.60;99.90
40960;DHT22;27842;52.272;8.052;2024-02-26T11:04:04;6.70;99.90
40960;DHT22;27842;52.272;8.052;2024-02-26T11:06:30;6.70;99.90
40960;DHT22;27842;52.272;8.052;2024-02-26T11:09:01;6.70;99.90
40960;DHT22;27842;52.272;8.052;2024-02-26T11:11:27;6.70;99.90
40960;DHT22;27842;52.272;8.052;2024-02-26T11:13:53;6.60;99.90
40960;DHT22;27842;52.272;8.052;2024-02-26T11:16:23;6.70;99.90
40960;DHT22;27842;52.272;8.052;2024-02-26T11:18:49;6.60;99.90
40960;DHT22;27842;52.272;8.052;2024-02-26T11:21:19;6.70;99.90
40960;DHT22;27842;52.272;8.052;2024-02-26T11:23:48;6.70;99.90
40960;DHT22;27842;52.272;8.052;2024-02-26T11:26:16;6.70;99.90
40960;DHT22;27842;52.272;8.052;2024-02-26T11:28:43;6.70;99.90
40960;DHT22;27842;52.272;8.052;2024-02-26T11:31:09;6.80;99.90
40960;DHT22;27842;52.272;8.052;2024-02-26T11:33:35;6.70;99.90
40960;DHT22;27842;52.272;8.052;2024-02-26T11:36:02;6.80;99.90
40960;DHT22;27842;52.272;8.052;2024-02-26T11:38:33;6.80;99.90
40960;DHT22;27842;52.272;8.052;2024-02-26T11:40:59;6.80;99.90
40960;DHT22;27842;52.272;8.052;2024-02-26T11:43:51;6.80;99.90
40960;DHT22;27842;52.272;8.052;2024-02-26T11:46:26;6.80;99.90
40960;DHT22;27842;52.272;8.052;2024-02-26T11:48:55;6.80;99.90
40960;DHT22;27842;52.272;8.052;2024-02-26T11:51:27;6.90;99.90
40960;DHT22;27842;52.272;8.052;2024-02-26T11:53:54;6.90;99.90
40960;DHT22;27842;52.272;8.052;2024-02-26T11:56:23;7.00;99.90
40960;DHT22;27842;52.272;8.052;2024-02-26T11:58:54;7.00;99.90
40960;DHT22;27842;52.272;8.052;2024-02-26T12:01:44;7.00;99.90
40960;DHT22;27842;52.272;8.052;2024-02-26T12:04:15;7.10;99.90
40960;DHT22;27842;52.272;8.052;2024-02-26T12:06:43;7.10;99.90
40960;DHT22;27842;52.272;8.052;2024-02-26T12:09:10;7.20;99.90
40960;DHT22;27842;52.272;8.052;2024-02-26T12:11:39;7.10;99.90
40960;DHT22;27842;52.272;8.052;2024-02-26T12:14:09;7.20;99.90
40960;DHT22;27842;52.272;8.052;2024-02-26T12:16:36;7.20;99.90
40960;DHT22;27842;52.272;8.052;2024-02-26T12:19:07;7.30;99.90
40960;DHT22;27842;52.272;8.052;2024-02-26T12:21:37;7.30;99.90
40960;DHT22;27842;52.272;8.052;2024-02-26T12:24:13;7.30;99.90
40960;DHT22;27842;52.272;8.052;2024-02-26T12:26:40;7.30;99.90
40960;DHT22;27842;52.272;8.052;2024-02-26T12:29:06;7.40;99.90
40960;DHT22;27842;52.272;8.052;2024-02-26T12:31:32;7.40;99.90
40960;DHT22;27842;52.272;8.052;2024-02-26T12:34:00;7.30;99.90
40960;DHT22;27842;52.272;8.052;2024-02-26T12:36:25;7.40;99.90
40960;DHT22;27842;52.272;8.052;2024-02-26T12:38:52;7.30;99.90
40960;DHT22;27842;52.272;8.052;2024-02-26T12:41:18;7.30;99.90
40960;DHT22;27842;52.272;8.052;2024-02-26T12:43:43;7.30;99.90
40960;DHT22;27842;52.272;8.052;2024-02-26T12:46:10;7.40;99.90
40960;DHT22;27842;52.272;8.052;2024-02-26T12:48:36;7.40;99.90
40960;DHT22;27842;52.272;8.052;2024-02-26T12:51:02;7.40;99.90
40960;DHT22;27842;52.272;8.052;2024-02-26T12:53:28;7.50;99.90
40960;DHT22;27842;52.272;8.052;2024-02-26T12:55:57;7.50;99.90
40960;DHT22;27842;52.272;8.052;2024-02-26T12:58:23;7.60;99.90
40960;DHT22;27842;52.272;8.052;2024-02-26T13:00:54;7.50;99.90
40960;DHT22;27842;52.272;8.052;2024-02-26T13:03:21;7.50;99.90
40960;DHT22;27842;52.272;8.052;2024-02-26T13:05:47;7.50;99.90
40960;DHT22;27842;52.272;8.052;2024-02-26T13:08:20;7.50;99.90
40960;DHT22;27842;52.272;8.052;2024-02-26T13:10:46;7.50;99.90
40960;DHT22;27842;52.272;8.052;2024-02-26T13:13:15;7.50;99.90
40960;DHT22;27842;52.272;8.052;2024-02-26T13:15:43;7.50;99.90
40960;DHT22;27842;52.272;8.052;2024-02-26T13:18:10;7.50;99.90
40960;DHT22;27842;52.272;8.052;2024-02-26T13:23:36;7.50;99.90
40960;DHT22;27842;52.272;8.052;2024-02-26T13:29:01;7.60;99.90
40960;DHT22;27842;52.272;8.052;2024-02-26T13:31:29;7.70;99.90
40960;DHT22;27842;52.272;8.052;2024-02-26T13:33:54;7.60;99.90
40960;DHT22;27842;52.272;8.052;2024-02-26T13:36:22;7.60;99.90
40960;DHT22;27842;52.272;8.052;2024-02-26T13:38:55;7.60;99.90
40960;DHT22;27842;52.272;8.052;2024-02-26T13:41:21;7.70;99.90
40960;DHT22;27842;52.272;8.052;2024-02-26T13:43:47;7.70;99.90
40960;DHT22;27842;52.272;8.052;2024-02-26T13:46:13;7.70;99.90
40960;DHT22;27842;52.272;8.052;2024-02-26T13:48:41;7.70;99.90
40960;DHT22;27842;52.272;8.052;2024-02-26T13:51:07;7.70;99.90
40960;DHT22;27842;52.272;8.052;2024-02-26T13:53:32;7.80;99.90
40960;DHT22;27842;52.272;8.052;2024-02-26T13:55:58;7.70;99.90
40960;DHT22;27842;52.272;8.052;2024-02-26T13:58:26;7.80;99.90
40960;DHT22;27842;52.272;8.052;2024-02-26T14:00:53;7.80;99.90
40960;DHT22;27842;52.272;8.052;2024-02-26T14:03:19;7.80;99.90
40960;DHT22;27842;52.272;8.052;2024-02-26T14:05:45;7.80;99.90
40960;DHT22;27842;52.272;8.052;2024-02-26T14:08:11;7.70;99.90
40960;DHT22;27842;52.272;8.052;2024-02-26T14:10:37;7.80;99.90
40960;DHT22;27842;52.272;8.052;2024-02-26T14:13:03;7.70;99.90
40960;DHT22;27842;52.272;8.052;2024-02-26T14:15:28;7.80;99.90
40960;DHT22;27842;52.272;8.052;2024-02-26T14:17:55;7.80;99.90
40960;DHT22;27842;52.272;8.052;2024-02-26T14:20:25;7.80;99.90
40960;DHT22;27842;52.272;8.052;2024-02-26T14:22:51;7.80;99.90
40960;DHT22;27842;52.272;8.052;2024-02-26T14:25:21;7.80;99.90
40960;DHT22;27842;52.272;8.052;2024-02-26T14:27:47;7.80;99.90
40960;DHT22;27842;52.272;8.052;2024-02-26T14:30:16;7.80;99.90
40960;DHT22;27842;52.272;8.052;2024-02-26T14:32:42;7.80;99.90
40960;DHT22;27842;52.272;8.052;2024-02-26T14:35:08;7.80;99.90
40960;DHT22;27842;52.272;8.052;2024-02-26T14:37:35;7.80;99.90
40960;DHT22;27842;52.272;8.052;2024-02-26T14:40:01;7.80;99.90
40960;DHT22;27842;52.272;8.052;2024-02-26T14:42:28;7.80;99.90
40960;DHT22;27842;52.272;8.052;2024-02-26T14:44:54;7.80;99.90
40960;DHT22;27842;52.272;8.052;2024-02-26T14:47:19;7.90;99.90
40960;DHT22;27842;52.272;8.052;2024-02-26T14:49:45;7.90;99.90
40960;DHT22;27842;52.272;8.052;2024-02-26T14:52:14;7.90;99.90
40960;DHT22;27842;52.272;8.052;2024-02-26T14:54:39;7.90;99.90
40960;DHT22;27842;52.272;8.052;2024-02-26T14:57:05;7.90;99.90
40960;DHT22;27842;52.272;8.052;2024-02-26T14:59:34;7.90;99.90
40960;DHT22;27842;52.272;8.052;2024-02-26T15:02:02;7.90;99.90
40960;DHT22;27842;52.272;8.052;2024-02-26T15:04:27;7.90;99.90
40960;DHT22;27842;52.272;8.052;2024-02-26T15:06:53;7.90;99.90
40960;DHT22;27842;52.272;8.052;2024-02-26T15:09:19;7.90;99.90
40960;DHT22;27842;52.272;8.052;2024-02-26T15:11:44;7.90;99.90
40960;DHT22;27842;52.272;8.052;2024-02-26T15:14:10;7.90;99.90
40960;DHT22;27842;52.272;8.052;2024-02-26T15:16:36;7.90;99.90
40960;DHT22;27842;52.272;8.052;2024-02-26T15:19:02;7.90;99.90
40960;DHT22;27842;52.272;8.052;2024-02-26T15:21:29;7.90;99.90
40960;DHT22;27842;52.272;8.052;2024-02-26T15:23:55;7.90;99.90
40960;DHT22;27842;52.272;8.052;2024-02-26T15:26:20;7.90;99.90
40960;DHT22;27842;52.272;8.052;2024-02-26T15:28:47;8.00;99.90
40960;DHT22;27842;52.272;8.052;2024-02-26T15:31:15;7.90;99.90
40960;DHT22;27842;52.272;8.052;2024-02-26T15:33:41;8.00;99.90
40960;DHT22;27842;52.272;8.052;2024-02-26T15:36:08;8.00;99.90
40960;DHT22;27842;52.272;8.052;2024-02-26T15:38:37;8.00;99.90
40960;DHT22;27842;52.272;8.052;2024-02-26T15:41:02;8.00;99.90
40960;DHT22;27842;52.272;8.052;2024-02-26T15:43:28;8.00;99.90
40960;DHT22;27842;52.272;8.052;2024-02-26T15:45:53;8.00;99.90